Time;durP1;ratioP1;P1;durP2;ratioP2;P2;SDS_P1;SDS_P2;PMS_P1;PMS_P2;Temp;Humidity;BMP_temperature;BMP_pressure;BME280_temperature;BME280_humidity;BME280_pressure;Samples;Min_cycle;Max_cycle;Signal;HPM_P1;HPM_P2
2023/09/11 00:01:51;;;;;;;12.10;10.90;;;;;;;;;;4956443;29;20043;-81
2023/09/11 00:04:17;;;;;;;14.45;12.02;;;;;;;;;;4959272;28;20053;-80
2023/09/11 00:06:44;;;;;;;13.88;11.57;;;;;;;;;;4967394;28;20046;-81
2023/09/11 00:09:10;;;;;;;14.05;12.20;;;;;;;;;;4976039;28;20051;-81
2023/09/11 00:11:37;;;;;;;13.38;12.00;;;;;;;;;;4977907;28;20050;-81
2023/09/11 00:14:05;;;;;;;13.50;12.10;;;;;;;;;;4977298;28;20050;-81
2023/09/11 00:16:32;;;;;;;13.20;11.75;;;;;;;;;;4963950;28;20062;-81
2023/09/11 00:18:59;;;;;;;14.18;12.63;;;;;;;;;;4970964;29;20053;-81
2023/09/11 00:21:26;;;;;;;13.52;12.15;;;;;;;;;;4977849;29;20114;-81
2023/09/11 00:23:52;;;;;;;13.30;11.90;;;;;;;;;;4957933;29;20105;-81
2023/09/11 00:26:19;;;;;;;14.00;12.50;;;;;;;;;;4957366;29;20055;-81
2023/09/11 00:28:45;;;;;;;14.10;11.98;;;;;;;;;;4955169;28;20039;-81
2023/09/11 00:31:13;;;;;;;13.90;11.65;;;;;;;;;;4957159;29;20043;-81
2023/09/11 00:33:40;;;;;;;13.32;11.93;;;;;;;;;;4956125;29;20332;-81
2023/09/11 00:36:06;;;;;;;15.20;11.75;;;;;;;;;;4956009;29;20398;-81
2023/09/11 00:38:33;;;;;;;13.05;11.63;;;;;;;;;;4956071;29;20106;-81
2023/09/11 00:40:59;;;;;;;14.40;12.38;;;;;;;;;;4956869;29;20535;-81
2023/09/11 00:43:26;;;;;;;16.30;13.13;;;;;;;;;;4956805;29;20047;-81
2023/09/11 00:45:55;;;;;;;14.30;12.60;;;;;;;;;;4956431;29;20440;-81
2023/09/11 00:48:24;;;;;;;16.70;14.40;;;;;;;;;;4955806;29;20501;-81
2023/09/11 00:50:51;;;;;;;16.63;14.10;;;;;;;;;;4956103;29;20422;-81
2023/09/11 00:53:19;;;;;;;14.00;12.50;;;;;;;;;;4956659;29;20054;-81
2023/09/11 00:55:47;;;;;;;16.02;12.98;;;;;;;;;;4956532;29;20054;-81
2023/09/11 00:58:16;;;;;;;13.98;12.57;;;;;;;;;;4956509;29;20079;-81
2023/09/11 01:00:44;;;;;;;14.80;12.50;;;;;;;;;;4958877;29;20045;-81
2023/09/11 01:03:11;;;;;;;15.65;12.98;;;;;;;;;;4959814;29;20047;-81
2023/09/11 01:05:39;;;;;;;14.93;12.18;;;;;;;;;;4965504;29;20126;-81
2023/09/11 01:08:06;;;;;;;13.70;12.20;;;;;;;;;;4967028;29;20071;-80
2023/09/11 01:10:33;;;;;;;14.60;13.07;;;;;;;;;;4960473;29;20134;-81
2023/09/11 01:13:00;;;;;;;14.95;13.00;;;;;;;;;;4956502;29;20051;-80
2023/09/11 01:15:32;;;;;;;15.57;13.10;;;;;;;;;;4956609;29;20053;-80
2023/09/11 01:18:07;;;;;;;14.80;12.80;;;;;;;;;;4955523;29;20054;-80
2023/09/11 01:21:06;;;;;;;13.27;11.80;;;;;;;;;;4956632;29;20039;-81
2023/09/11 01:24:02;;;;;;;15.57;13.88;;;;;;;;;;4958437;29;20051;-80
2023/09/11 01:26:52;;;;;;;15.05;13.32;;;;;;;;;;4959177;29;20510;-81
2023/09/11 01:29:23;;;;;;;15.80;14.20;;;;;;;;;;4959030;29;20377;-80
2023/09/11 01:31:51;;;;;;;16.75;13.75;;;;;;;;;;4959662;29;20058;-81
2023/09/11 01:34:18;;;;;;;14.82;13.30;;;;;;;;;;4959420;29;20130;-81
2023/09/11 01:36:45;;;;;;;15.45;12.65;;;;;;;;;;4984328;23;20054;-55
2023/09/11 01:39:12;;;;;;;16.02;13.48;;;;;;;;;;4979218;28;20066;-58
2023/09/11 01:41:42;;;;;;;14.75;13.15;;;;;;;;;;4973525;28;20082;-58
2023/09/11 01:44:15;;;;;;;15.05;12.82;;;;;;;;;;4973044;28;20051;-54
2023/09/11 01:46:45;;;;;;;14.02;11.93;;;;;;;;;;4972703;28;20093;-60
2023/09/11 01:49:12;;;;;;;14.57;13.07;;;;;;;;;;4983792;28;20422;-59
2023/09/11 01:51:41;;;;;;;16.90;13.90;;;;;;;;;;4991706;28;20052;-55
2023/09/11 01:54:08;;;;;;;15.27;13.35;;;;;;;;;;4991788;28;20046;-58
2023/09/11 01:56:36;;;;;;;15.23;13.18;;;;;;;;;;4992506;28;20142;-59
2023/09/11 01:59:02;;;;;;;16.00;13.38;;;;;;;;;;4992050;28;20038;-57
2023/09/11 02:01:29;;;;;;;15.98;14.18;;;;;;;;;;4992547;28;20042;-58
2023/09/11 02:03:57;;;;;;;18.52;14.20;;;;;;;;;;4988463;28;20080;-55
2023/09/11 02:06:24;;;;;;;16.90;14.18;;;;;;;;;;4990725;28;20046;-57
2023/09/11 02:08:50;;;;;;;16.40;14.15;;;;;;;;;;4992299;28;20051;-54
2023/09/11 02:11:17;;;;;;;17.33;14.07;;;;;;;;;;4992450;28;20047;-58
2023/09/11 02:13:44;;;;;;;17.58;14.32;;;;;;;;;;4992466;28;20050;-53
2023/09/11 02:16:10;;;;;;;16.30;14.20;;;;;;;;;;4992314;28;20416;-55
2023/09/11 02:18:39;;;;;;;17.75;14.85;;;;;;;;;;4992336;28;20042;-56
2023/09/11 02:21:07;;;;;;;16.60;14.27;;;;;;;;;;4992852;28;20406;-57
2023/09/11 02:23:34;;;;;;;15.80;14.15;;;;;;;;;;4992518;28;20048;-57
2023/09/11 02:26:00;;;;;;;15.73;14.00;;;;;;;;;;4991530;28;20050;-54
2023/09/11 02:28:28;;;;;;;17.13;14.20;;;;;;;;;;4991927;28;20057;-54
2023/09/11 02:30:55;;;;;;;15.93;14.07;;;;;;;;;;4992409;28;20061;-57
2023/09/11 02:33:21;;;;;;;15.35;13.77;;;;;;;;;;4992541;28;20046;-53
2023/09/11 02:35:54;;;;;;;17.98;14.50;;;;;;;;;;4992185;28;20046;-55
2023/09/11 02:38:22;;;;;;;16.58;14.88;;;;;;;;;;4991808;28;20058;-59
2023/09/11 02:40:48;;;;;;;15.52;13.93;;;;;;;;;;4992056;28;20137;-57
2023/09/11 02:43:15;;;;;;;14.98;13.38;;;;;;;;;;4991960;28;20049;-57
2023/09/11 02:45:42;;;;;;;16.80;14.18;;;;;;;;;;4992310;28;20042;-56
2023/09/11 02:48:09;;;;;;;16.80;14.20;;;;;;;;;;4991628;28;20415;-57
2023/09/11 02:50:35;;;;;;;13.65;12.23;;;;;;;;;;4992100;28;20130;-54
2023/09/11 02:53:02;;;;;;;14.73;13.18;;;;;;;;;;4995433;28;20058;-54
2023/09/11 02:55:30;;;;;;;14.60;12.95;;;;;;;;;;4996036;28;20049;-58
2023/09/11 02:57:56;;;;;;;14.75;13.13;;;;;;;;;;4995315;28;20046;-56
2023/09/11 03:00:23;;;;;;;15.05;13.27;;;;;;;;;;4995476;28;20046;-57
2023/09/11 03:02:50;;;;;;;15.10;13.50;;;;;;;;;;4995829;28;20058;-54
2023/09/11 03:05:16;;;;;;;15.93;13.63;;;;;;;;;;4995902;28;20504;-56
2023/09/11 03:07:43;;;;;;;14.70;13.10;;;;;;;;;;4995384;28;20476;-55
2023/09/11 03:10:10;;;;;;;14.60;13.10;;;;;;;;;;4995224;28;20057;-58
2023/09/11 03:12:38;;;;;;;14.95;13.35;;;;;;;;;;4995431;28;20534;-58
2023/09/11 03:15:06;;;;;;;14.60;12.90;;;;;;;;;;4995696;28;20058;-58
2023/09/11 03:17:33;;;;;;;15.20;13.70;;;;;;;;;;4995419;28;20053;-59
2023/09/11 03:19:59;;;;;;;14.80;13.27;;;;;;;;;;4995034;28;20057;-58
2023/09/11 03:22:26;;;;;;;15.23;13.73;;;;;;;;;;4995266;28;20042;-59
2023/09/11 03:24:53;;;;;;;16.80;13.93;;;;;;;;;;4995201;28;20073;-60
2023/09/11 03:27:19;;;;;;;15.32;13.73;;;;;;;;;;4995182;28;20061;-58
2023/09/11 03:29:51;;;;;;;16.40;14.00;;;;;;;;;;4995272;28;20081;-55
2023/09/11 03:32:17;;;;;;;15.15;13.55;;;;;;;;;;4995266;28;20047;-56
2023/09/11 03:34:44;;;;;;;15.23;13.23;;;;;;;;;;4995615;28;20230;-59
2023/09/11 03:37:11;;;;;;;15.50;13.32;;;;;;;;;;4995050;28;20050;-57
2023/09/11 03:39:37;;;;;;;16.40;14.52;;;;;;;;;;4994356;28;20050;-58
2023/09/11 03:42:04;;;;;;;16.30;14.25;;;;;;;;;;4995068;28;20054;-57
2023/09/11 03:44:31;;;;;;;16.95;14.38;;;;;;;;;;4994746;28;20137;-56
2023/09/11 03:46:59;;;;;;;18.40;16.00;;;;;;;;;;4994543;28;20470;-57
2023/09/11 03:49:25;;;;;;;16.30;14.50;;;;;;;;;;4995117;28;20047;-56
2023/09/11 03:51:52;;;;;;;16.75;14.05;;;;;;;;;;4994160;28;20060;-56
2023/09/11 03:54:19;;;;;;;19.35;13.85;;;;;;;;;;4995021;28;20050;-57
2023/09/11 03:56:45;;;;;;;16.90;14.68;;;;;;;;;;4994784;28;20129;-57
2023/09/11 03:59:12;;;;;;;17.83;14.30;;;;;;;;;;4993942;28;20062;-57
2023/09/11 04:01:38;;;;;;;16.42;14.32;;;;;;;;;;4994355;28;20078;-58
2023/09/11 04:04:07;;;;;;;18.17;13.70;;;;;;;;;;4994514;28;20483;-54
2023/09/11 04:06:33;;;;;;;15.75;14.05;;;;;;;;;;4994066;28;20042;-54
2023/09/11 04:09:00;;;;;;;20.52;18.33;;;;;;;;;;4994735;28;20333;-58
2023/09/11 04:11:26;;;;;;;17.23;15.43;;;;;;;;;;4994431;28;20488;-57
2023/09/11 04:13:53;;;;;;;16.77;15.00;;;;;;;;;;4994378;28;20049;-57
2023/09/11 04:16:21;;;;;;;17.08;14.93;;;;;;;;;;4993927;28;20050;-57
2023/09/11 04:18:47;;;;;;;15.82;13.75;;;;;;;;;;4993681;28;20137;-58
2023/09/11 04:21:16;;;;;;;16.67;13.25;;;;;;;;;;4993885;28;20546;-58
2023/09/11 04:23:42;;;;;;;16.92;14.25;;;;;;;;;;4994200;28;20488;-57
2023/09/11 04:26:09;;;;;;;18.70;14.50;;;;;;;;;;4993985;28;20046;-57
2023/09/11 04:28:37;;;;;;;15.55;13.18;;;;;;;;;;4993804;28;20093;-57
2023/09/11 04:31:03;;;;;;;15.40;13.57;;;;;;;;;;4993067;28;20125;-58
2023/09/11 04:33:30;;;;;;;17.00;13.38;;;;;;;;;;4993899;28;20053;-55
2023/09/11 04:35:57;;;;;;;15.65;13.93;;;;;;;;;;4990070;28;20495;-56
2023/09/11 04:38:25;;;;;;;16.45;13.45;;;;;;;;;;4994021;28;20051;-58
2023/09/11 04:40:56;;;;;;;15.93;13.65;;;;;;;;;;4993643;28;20050;-56
2023/09/11 04:43:23;;;;;;;16.70;13.77;;;;;;;;;;4994023;28;20052;-55
2023/09/11 04:45:50;;;;;;;16.85;13.80;;;;;;;;;;4993648;28;20046;-56
2023/09/11 04:48:16;;;;;;;18.20;14.52;;;;;;;;;;4993406;28;20407;-57
2023/09/11 04:50:43;;;;;;;18.98;16.63;;;;;;;;;;4993569;28;20389;-55
2023/09/11 04:53:09;;;;;;;17.33;15.25;;;;;;;;;;4993318;28;20065;-58
2023/09/11 04:55:37;;;;;;;18.98;16.27;;;;;;;;;;4993225;28;20054;-56
2023/09/11 04:58:04;;;;;;;17.92;16.02;;;;;;;;;;4988849;28;20050;-58
2023/09/11 05:00:31;;;;;;;18.75;16.73;;;;;;;;;;4986029;28;20142;-57
2023/09/11 05:02:58;;;;;;;19.70;16.73;;;;;;;;;;4992914;28;20502;-58
2023/09/11 05:05:25;;;;;;;17.55;15.48;;;;;;;;;;4982398;28;20053;-55
2023/09/11 05:07:51;;;;;;;17.63;14.52;;;;;;;;;;4975864;28;20428;-57
2023/09/11 05:10:18;;;;;;;17.42;15.18;;;;;;;;;;4993177;28;20048;-57
2023/09/11 05:12:47;;;;;;;17.85;14.07;;;;;;;;;;4993084;28;20054;-58
2023/09/11 05:15:14;;;;;;;18.02;14.55;;;;;;;;;;4992450;28;20050;-58
2023/09/11 05:17:40;;;;;;;17.02;14.55;;;;;;;;;;4973948;28;20540;-57
2023/09/11 05:20:08;;;;;;;16.73;13.73;;;;;;;;;;4988882;28;20065;-58
2023/09/11 05:22:34;;;;;;;17.70;13.95;;;;;;;;;;4993024;28;20414;-58
2023/09/11 05:25:01;;;;;;;19.88;15.15;;;;;;;;;;4992892;28;20053;-57
2023/09/11 05:27:29;;;;;;;17.55;14.63;;;;;;;;;;4992990;28;20043;-53
2023/09/11 05:29:57;;;;;;;19.92;14.75;;;;;;;;;;4992018;28;20042;-58
2023/09/11 05:32:25;;;;;;;18.67;15.80;;;;;;;;;;4990155;28;20411;-58
2023/09/11 05:34:52;;;;;;;17.45;15.13;;;;;;;;;;4992524;28;20081;-53
2023/09/11 05:37:18;;;;;;;19.02;16.25;;;;;;;;;;4992158;28;20077;-55
2023/09/11 05:39:45;;;;;;;20.13;16.38;;;;;;;;;;4992914;28;20422;-56
2023/09/11 05:42:12;;;;;;;23.13;17.20;;;;;;;;;;4992711;28;20054;-56
2023/09/11 05:44:39;;;;;;;20.88;17.33;;;;;;;;;;4992470;28;20054;-54
2023/09/11 05:47:07;;;;;;;19.23;16.58;;;;;;;;;;4992099;28;20137;-58
2023/09/11 05:49:34;;;;;;;18.85;16.55;;;;;;;;;;4992380;28;20046;-56
2023/09/11 05:52:00;;;;;;;21.13;16.60;;;;;;;;;;4992045;28;20057;-57
2023/09/11 05:54:27;;;;;;;17.30;15.02;;;;;;;;;;4992591;28;20138;-57
2023/09/11 05:56:54;;;;;;;16.55;14.65;;;;;;;;;;4991746;28;20491;-57
2023/09/11 05:59:20;;;;;;;18.02;14.90;;;;;;;;;;4992657;28;20046;-55
2023/09/11 06:01:47;;;;;;;19.95;16.15;;;;;;;;;;4992014;28;20404;-59
2023/09/11 06:04:15;;;;;;;17.38;15.10;;;;;;;;;;4992778;28;20133;-55
2023/09/11 06:06:42;;;;;;;18.50;16.00;;;;;;;;;;4992045;28;20038;-57
2023/09/11 06:09:09;;;;;;;17.77;15.88;;;;;;;;;;4985958;28;20471;-55
2023/09/11 06:11:36;;;;;;;19.00;16.33;;;;;;;;;;4976403;28;20100;-58
2023/09/11 06:14:02;;;;;;;17.40;15.60;;;;;;;;;;4992645;28;20389;-58
2023/09/11 06:16:29;;;;;;;19.30;15.35;;;;;;;;;;4992162;28;20058;-58
2023/09/11 06:18:57;;;;;;;17.60;15.25;;;;;;;;;;4986087;28;20352;-58
2023/09/11 06:21:25;;;;;;;17.60;15.68;;;;;;;;;;4989230;28;20061;-57
2023/09/11 06:23:51;;;;;;;18.17;15.50;;;;;;;;;;4991493;28;20508;-57
2023/09/11 06:26:18;;;;;;;18.63;15.98;;;;;;;;;;4986498;28;20300;-56
2023/09/11 06:28:44;;;;;;;23.75;16.25;;;;;;;;;;4992360;28;20047;-57
2023/09/11 06:31:11;;;;;;;18.85;16.70;;;;;;;;;;4990070;28;20068;-57
2023/09/11 06:33:38;;;;;;;18.73;16.25;;;;;;;;;;4990276;28;20057;-58
2023/09/11 06:36:05;;;;;;;18.73;16.55;;;;;;;;;;4995557;28;20050;-59
2023/09/11 06:38:33;;;;;;;18.83;16.52;;;;;;;;;;4990641;28;20047;-57
2023/09/11 06:40:59;;;;;;;19.90;17.90;;;;;;;;;;4990909;28;20403;-57
2023/09/11 06:43:26;;;;;;;21.02;18.83;;;;;;;;;;4993361;28;20049;-56
2023/09/11 06:45:53;;;;;;;25.02;20.60;;;;;;;;;;4995576;28;20074;-56
2023/09/11 06:48:20;;;;;;;21.50;19.30;;;;;;;;;;5006719;28;20422;-57
2023/09/11 06:50:47;;;;;;;22.50;19.30;;;;;;;;;;5000067;28;20050;-58
2023/09/11 06:53:14;;;;;;;24.02;19.92;;;;;;;;;;4992803;28;20050;-54
2023/09/11 06:55:46;;;;;;;22.27;19.88;;;;;;;;;;4995230;28;20510;-59
2023/09/11 06:58:13;;;;;;;21.70;19.23;;;;;;;;;;4995251;28;20050;-57
2023/09/11 07:00:40;;;;;;;20.17;18.00;;;;;;;;;;4995840;28;20046;-54
2023/09/11 07:03:06;;;;;;;21.30;18.95;;;;;;;;;;4995619;28;20081;-58
2023/09/11 07:05:34;;;;;;;20.90;18.70;;;;;;;;;;4995264;28;20050;-56
2023/09/11 07:08:01;;;;;;;20.13;18.10;;;;;;;;;;4995017;28;20050;-57
2023/09/11 07:10:27;;;;;;;21.08;18.15;;;;;;;;;;4995867;28;20423;-58
2023/09/11 07:12:55;;;;;;;20.27;17.25;;;;;;;;;;4995736;28;20052;-59
2023/09/11 07:15:22;;;;;;;22.25;19.20;;;;;;;;;;4995104;28;20042;-60
2023/09/11 07:17:50;;;;;;;21.20;18.58;;;;;;;;;;4979357;28;20438;-63
2023/09/11 07:20:18;;;;;;;22.10;17.38;;;;;;;;;;4989824;28;20046;-64
2023/09/11 07:22:44;;;;;;;18.45;15.88;;;;;;;;;;4990905;28;20061;-64
2023/09/11 07:25:14;;;;;;;18.25;15.85;;;;;;;;;;4987291;28;20039;-67
2023/09/11 07:27:41;;;;;;;;;;;;;;;;;;4992956;28;20137;-66
2023/09/11 07:30:09;;;;;;;17.58;15.68;;;;;;;;;;4995539;28;20271;-64
2023/09/11 07:32:36;;;;;;;18.42;15.20;;;;;;;;;;4981104;28;20490;-64
2023/09/11 07:35:03;;;;;;;16.13;14.25;;;;;;;;;;4989393;28;20050;-70
2023/09/11 07:37:30;;;;;;;16.58;14.77;;;;;;;;;;4998185;23;20054;-67
2023/09/11 07:39:57;;;;;;;16.45;14.73;;;;;;;;;;4985814;28;20054;-65
2023/09/11 07:42:24;;;;;;;18.55;15.45;;;;;;;;;;4983848;28;21835;-65
2023/09/11 07:44:51;;;;;;;16.77;14.82;;;;;;;;;;4976940;28;20073;-64
2023/09/11 07:47:19;;;;;;;15.60;14.07;;;;;;;;;;4983721;28;20061;-63
2023/09/11 07:49:46;;;;;;;15.60;14.00;;;;;;;;;;4982511;28;20047;-62
2023/09/11 07:52:15;;;;;;;17.30;15.60;;;;;;;;;;4979708;28;20038;-63
2023/09/11 07:54:42;;;;;;;16.02;14.32;;;;;;;;;;4981520;28;20050;-63
2023/09/11 07:57:08;;;;;;;14.85;13.35;;;;;;;;;;4986873;28;20046;-64
2023/09/11 07:59:35;;;;;;;16.17;14.48;;;;;;;;;;4975504;28;20053;-63
2023/09/11 08:02:02;;;;;;;16.10;14.50;;;;;;;;;;4982304;28;20057;-63
2023/09/11 08:04:30;;;;;;;16.30;13.93;;;;;;;;;;4979645;28;20047;-66
2023/09/11 08:06:56;;;;;;;15.10;13.60;;;;;;;;;;4991051;28;20053;-64
2023/09/11 08:09:23;;;;;;;15.10;13.38;;;;;;;;;;4985233;28;20145;-64
2023/09/11 08:11:50;;;;;;;15.73;14.13;;;;;;;;;;4979678;28;20051;-63
2023/09/11 08:14:17;;;;;;;16.25;14.27;;;;;;;;;;4980070;28;20484;-62
2023/09/11 08:16:43;;;;;;;16.27;13.25;;;;;;;;;;4975905;28;20063;-63
2023/09/11 08:19:10;;;;;;;15.82;14.10;;;;;;;;;;4989285;28;20058;-63
2023/09/11 08:21:39;;;;;;;14.68;13.27;;;;;;;;;;4986578;28;20510;-63
2023/09/11 08:24:06;;;;;;;16.73;13.73;;;;;;;;;;4981286;28;20101;-64
2023/09/11 08:26:34;;;;;;;14.95;13.55;;;;;;;;;;4975518;28;20541;-66
2023/09/11 08:29:02;;;;;;;14.90;13.40;;;;;;;;;;4979161;28;20691;-65
2023/09/11 08:31:29;;;;;;;16.52;14.85;;;;;;;;;;4975045;28;20043;-66
2023/09/11 08:33:56;;;;;;;17.88;15.13;;;;;;;;;;4974833;28;20100;-65
2023/09/11 08:36:23;;;;;;;16.20;14.45;;;;;;;;;;4990896;28;20066;-66
2023/09/11 08:38:51;;;;;;;16.05;14.20;;;;;;;;;;4987971;28;20474;-65
2023/09/11 08:41:19;;;;;;;16.13;14.02;;;;;;;;;;4984561;28;20492;-68
2023/09/11 08:43:45;;;;;;;14.90;13.40;;;;;;;;;;4982414;28;20519;-61
2023/09/11 08:46:15;;;;;;;16.65;14.63;;;;;;;;;;4978494;28;20056;-64
2023/09/11 08:48:44;;;;;;;16.90;15.18;;;;;;;;;;4979873;28;20057;-62
2023/09/11 08:51:17;;;;;;;15.33;13.70;;;;;;;;;;4986335;28;20146;-68
2023/09/11 08:53:46;;;;;;;17.58;14.43;;;;;;;;;;4980721;28;20371;-66
2023/09/11 08:56:14;;;;;;;15.73;14.13;;;;;;;;;;4982685;28;20050;-67
2023/09/11 08:58:42;;;;;;;17.33;14.63;;;;;;;;;;4979626;28;20423;-65
2023/09/11 09:01:09;;;;;;;16.80;14.52;;;;;;;;;;4981947;28;20116;-65
2023/09/11 09:03:37;;;;;;;16.45;14.75;;;;;;;;;;4980273;28;20134;-66
2023/09/11 09:06:05;;;;;;;15.38;13.75;;;;;;;;;;4979938;28;20058;-65
2023/09/11 09:08:33;;;;;;;15.23;13.38;;;;;;;;;;4979689;28;20392;-66
2023/09/11 09:11:01;;;;;;;15.57;13.98;;;;;;;;;;4978400;28;20046;-66
2023/09/11 09:13:34;;;;;;;14.68;13.25;;;;;;;;;;4980085;28;20074;-66
2023/09/11 09:16:00;;;;;;;14.90;13.40;;;;;;;;;;4984836;28;20050;-66
2023/09/11 09:18:27;;;;;;;16.70;13.93;;;;;;;;;;4973997;28;20141;-66
2023/09/11 09:20:55;;;;;;;15.43;13.93;;;;;;;;;;4979321;28;20043;-67
2023/09/11 09:23:32;;;;;;;15.40;12.88;;;;;;;;;;4978351;28;20098;-68
2023/09/11 09:26:04;;;;;;;13.45;12.05;;;;;;;;;;4979113;28;20065;-65
2023/09/11 09:28:33;;;;;;;14.02;12.50;;;;;;;;;;4978356;28;20050;-66
2023/09/11 09:31:00;;;;;;;14.32;12.13;;;;;;;;;;4987065;28;20189;-65
2023/09/11 09:33:28;;;;;;;16.17;13.75;;;;;;;;;;4982691;28;20050;-66
2023/09/11 09:35:55;;;;;;;14.38;13.00;;;;;;;;;;4981008;28;20057;-65
2023/09/11 09:38:23;;;;;;;13.85;12.45;;;;;;;;;;4976489;28;20093;-66
2023/09/11 09:40:51;;;;;;;13.35;12.05;;;;;;;;;;4975305;28;20046;-65
2023/09/11 09:43:19;;;;;;;13.40;11.90;;;;;;;;;;4970974;28;20139;-66
2023/09/11 09:45:47;;;;;;;14.30;12.82;;;;;;;;;;4978225;28;20062;-66
2023/09/11 09:48:18;;;;;;;14.35;12.48;;;;;;;;;;4981595;28;20517;-65
2023/09/11 09:50:58;;;;;;;13.73;12.20;;;;;;;;;;4982123;28;20054;-68
2023/09/11 09:53:27;;;;;;;14.20;12.75;;;;;;;;;;4983892;28;20073;-67
2023/09/11 09:55:55;;;;;;;14.73;13.00;;;;;;;;;;4986872;28;20423;-65
2023/09/11 09:58:27;;;;;;;12.98;11.68;;;;;;;;;;4980420;28;20070;-68
2023/09/11 10:01:00;;;;;;;12.68;11.48;;;;;;;;;;4979278;28;20260;-66
2023/09/11 10:03:28;;;;;;;11.95;10.75;;;;;;;;;;4974416;28;20069;-66
2023/09/11 10:05:55;;;;;;;12.32;11.13;;;;;;;;;;4974946;28;20046;-66
2023/09/11 10:08:22;;;;;;;12.95;11.65;;;;;;;;;;4976564;28;20082;-66
2023/09/11 10:10:48;;;;;;;12.18;10.68;;;;;;;;;;4985106;28;20054;-66
2023/09/11 10:13:16;;;;;;;13.55;12.23;;;;;;;;;;4979683;28;20038;-66
2023/09/11 10:15:44;;;;;;;11.48;10.38;;;;;;;;;;4982923;28;20074;-67
2023/09/11 10:18:13;;;;;;;12.45;11.10;;;;;;;;;;4976033;28;20136;-67
2023/09/11 10:20:40;;;;;;;13.10;11.80;;;;;;;;;;4976899;28;20050;-69
2023/09/11 10:23:08;;;;;;;11.95;10.75;;;;;;;;;;4978192;28;20126;-66
2023/09/11 10:25:40;;;;;;;12.48;11.18;;;;;;;;;;4984451;28;20074;-66
2023/09/11 10:28:08;;;;;;;12.68;11.25;;;;;;;;;;4980931;28;20095;-66
2023/09/11 10:30:42;;;;;;;11.48;10.30;;;;;;;;;;4982318;28;20538;-66
2023/09/11 10:33:17;;;;;;;11.80;10.70;;;;;;;;;;4981239;28;20050;-65
2023/09/11 10:35:46;;;;;;;13.02;11.73;;;;;;;;;;4978482;28;20104;-66
2023/09/11 10:38:16;;;;;;;11.30;10.02;;;;;;;;;;4976481;28;20043;-64
2023/09/11 10:40:44;;;;;;;11.77;10.63;;;;;;;;;;4982294;28;20059;-65
2023/09/11 10:43:12;;;;;;;12.63;11.32;;;;;;;;;;4982325;28;20133;-66
2023/09/11 10:45:39;;;;;;;11.30;10.20;;;;;;;;;;4982495;28;20126;-68
2023/09/11 10:48:06;;;;;;;12.23;11.02;;;;;;;;;;4978057;28;20054;-65
2023/09/11 10:50:38;;;;;;;12.02;10.75;;;;;;;;;;4978973;28;20054;-65
2023/09/11 10:53:07;;;;;;;11.80;10.60;;;;;;;;;;4978050;28;20409;-66
2023/09/11 10:55:34;;;;;;;11.50;10.20;;;;;;;;;;4979491;28;20047;-65
2023/09/11 10:58:04;;;;;;;12.25;11.05;;;;;;;;;;4980778;28;20135;-65
2023/09/11 11:00:30;;;;;;;;;;;;;;;;;;4972407;28;20134;-66
2023/09/11 11:02:59;;;;;;;12.10;10.85;;;;;;;;;;4983440;28;19929;-66
2023/09/11 11:05:27;;;;;;;11.60;10.50;;;;;;;;;;4979270;28;20050;-65
2023/09/11 11:07:56;;;;;;;12.50;11.20;;;;;;;;;;4975124;28;20046;-65
2023/09/11 11:10:23;;;;;;;11.82;10.63;;;;;;;;;;4980270;28;20578;-66
2023/09/11 11:13:04;;;;;;;12.80;10.85;;;;;;;;;;4987806;28;20049;-65
2023/09/11 11:15:31;;;;;;;11.27;10.10;;;;;;;;;;4981119;28;20431;-65
2023/09/11 11:18:08;;;;;;;12.32;11.02;;;;;;;;;;4987060;28;20049;-64
2023/09/11 11:20:36;;;;;;;59.00;27.20;;;;;;;;;;4984626;28;20149;-62
2023/09/11 11:23:11;;;;;;;13.23;11.93;;;;;;;;;;4983434;28;20133;-65
2023/09/11 11:25:42;;;;;;;11.70;10.48;;;;;;;;;;4985671;28;20046;-65
2023/09/11 11:28:15;;;;;;;12.52;11.00;;;;;;;;;;4985579;28;20053;-67
2023/09/11 11:30:44;;;;;;;12.95;11.40;;;;;;;;;;4981496;28;20046;-65
2023/09/11 11:33:15;;;;;;;13.87;10.97;;;;;;;;;;4985613;28;20051;-65
2023/09/11 11:35:44;;;;;;;12.57;11.27;;;;;;;;;;4977142;28;20504;-65
2023/09/11 11:38:15;;;;;;;13.73;11.77;;;;;;;;;;4987762;28;20046;-65
2023/09/11 11:40:42;;;;;;;17.58;13.60;;;;;;;;;;4980456;28;20105;-65
2023/09/11 11:43:09;;;;;;;11.70;10.50;;;;;;;;;;4980318;28;20074;-65
2023/09/11 11:45:38;;;;;;;12.73;11.10;;;;;;;;;;4987827;28;20415;-65
2023/09/11 11:48:05;;;;;;;14.68;11.77;;;;;;;;;;4982246;28;20484;-65
2023/09/11 11:50:32;;;;;;;16.00;11.88;;;;;;;;;;4982465;28;20495;-68
2023/09/11 11:52:59;;;;;;;12.52;11.07;;;;;;;;;;4977531;28;20061;-67
2023/09/11 11:55:27;;;;;;;12.00;10.23;;;;;;;;;;4989748;28;20053;-66
2023/09/11 11:57:55;;;;;;;11.80;10.48;;;;;;;;;;4980057;28;20051;-66
2023/09/11 12:00:21;;;;;;;12.02;10.23;;;;;;;;;;4983179;28;20152;-66
2023/09/11 12:02:48;;;;;;;13.85;10.35;;;;;;;;;;4981222;28;20416;-66
2023/09/11 12:05:15;;;;;;;11.20;10.00;;;;;;;;;;4979416;28;20045;-66
2023/09/11 12:07:43;;;;;;;11.85;10.75;;;;;;;;;;4978459;28;20138;-66
2023/09/11 12:10:10;;;;;;;11.60;10.50;;;;;;;;;;4980890;28;20412;-67
2023/09/11 12:12:42;;;;;;;12.30;10.95;;;;;;;;;;4980602;28;20491;-66
2023/09/11 12:15:10;;;;;;;12.00;10.57;;;;;;;;;;4982305;28;20134;-65
2023/09/11 12:17:45;;;;;;;11.05;10.02;;;;;;;;;;4984383;28;20137;-66
2023/09/11 12:20:14;;;;;;;12.27;10.98;;;;;;;;;;4983148;28;20057;-66
2023/09/11 12:22:43;;;;;;;12.68;11.48;;;;;;;;;;4981069;28;20299;-67
2023/09/11 12:25:10;;;;;;;12.23;10.93;;;;;;;;;;4979402;28;20054;-66
2023/09/11 12:27:37;;;;;;;12.32;10.70;;;;;;;;;;4987528;28;20133;-67
2023/09/11 12:30:06;;;;;;;12.15;10.85;;;;;;;;;;4985827;28;20043;-65
2023/09/11 12:32:33;;;;;;;;;;;;;;;;;;4986299;28;20063;-65
2023/09/11 12:35:00;;;;;;;13.45;10.68;;;;;;;;;;4984287;28;19953;-67
2023/09/11 12:37:28;;;;;;;11.82;10.27;;;;;;;;;;4988261;28;20056;-66
2023/09/11 12:39:55;;;;;;;12.70;10.63;;;;;;;;;;4990520;28;20109;-65
2023/09/11 12:42:24;;;;;;;13.00;11.70;;;;;;;;;;4980858;28;20050;-66
2023/09/11 12:44:51;;;;;;;12.27;10.80;;;;;;;;;;4980742;28;20072;-65
2023/09/11 12:47:19;;;;;;;12.80;11.57;;;;;;;;;;4982667;28;20043;-66
2023/09/11 12:49:46;;;;;;;12.80;11.50;;;;;;;;;;4981771;28;20477;-64
2023/09/11 12:52:13;;;;;;;12.25;11.05;;;;;;;;;;4979440;28;20073;-64
2023/09/11 12:54:40;;;;;;;11.88;10.70;;;;;;;;;;4984960;28;20090;-66
2023/09/11 12:57:09;;;;;;;11.70;10.50;;;;;;;;;;4985078;28;20496;-65
2023/09/11 12:59:36;;;;;;;12.00;10.80;;;;;;;;;;4980162;28;20081;-64
2023/09/11 13:02:04;;;;;;;11.40;10.20;;;;;;;;;;4979196;28;20077;-64
2023/09/11 13:04:32;;;;;;;11.30;10.27;;;;;;;;;;4977480;28;20412;-65
2023/09/11 13:06:59;;;;;;;10.40;9.40;;;;;;;;;;4979505;28;20137;-64
2023/09/11 13:09:26;;;;;;;11.23;10.13;;;;;;;;;;4980095;28;20054;-65
2023/09/11 13:11:52;;;;;;;10.88;9.80;;;;;;;;;;4971722;28;20075;-64
2023/09/11 13:14:19;;;;;;;11.60;10.05;;;;;;;;;;4971512;28;20464;-65
2023/09/11 13:16:46;;;;;;;11.25;10.05;;;;;;;;;;4982965;28;20042;-65
2023/09/11 13:19:14;;;;;;;11.35;10.32;;;;;;;;;;4984912;28;20065;-65
2023/09/11 13:21:42;;;;;;;11.50;10.40;;;;;;;;;;4977762;28;20134;-65
2023/09/11 13:24:09;;;;;;;11.68;10.50;;;;;;;;;;4985159;28;20134;-66
2023/09/11 13:26:36;;;;;;;11.55;9.32;;;;;;;;;;4974694;28;20055;-65
2023/09/11 13:29:03;;;;;;;10.95;9.82;;;;;;;;;;4986743;28;20419;-65
2023/09/11 13:31:30;;;;;;;10.75;9.65;;;;;;;;;;4979976;28;20058;-65
2023/09/11 13:33:57;;;;;;;10.93;9.93;;;;;;;;;;4982672;28;20050;-65
2023/09/11 13:36:23;;;;;;;10.30;9.27;;;;;;;;;;4981282;28;20054;-64
2023/09/11 13:38:51;;;;;;;11.57;10.38;;;;;;;;;;4985270;23;20174;-67
2023/09/11 13:41:18;;;;;;;10.48;9.48;;;;;;;;;;4958207;28;20058;-66
2023/09/11 13:43:44;;;;;;;10.68;9.60;;;;;;;;;;4971124;28;20134;-67
2023/09/11 13:46:11;;;;;;;10.38;9.00;;;;;;;;;;4956991;28;20051;-66
2023/09/11 13:48:38;;;;;;;10.60;9.30;;;;;;;;;;4953882;28;20134;-65
2023/09/11 13:51:04;;;;;;;10.70;9.70;;;;;;;;;;4956317;28;20126;-66
2023/09/11 13:53:31;;;;;;;9.77;8.77;;;;;;;;;;4965229;28;20046;-66
2023/09/11 13:56:00;;;;;;;10.32;9.32;;;;;;;;;;4962311;28;20059;-66
2023/09/11 13:58:26;;;;;;;9.88;8.98;;;;;;;;;;4961968;28;20051;-66
2023/09/11 14:00:53;;;;;;;10.30;9.30;;;;;;;;;;4963419;28;20145;-67
2023/09/11 14:03:19;;;;;;;10.68;9.57;;;;;;;;;;4965885;28;20429;-66
2023/09/11 14:05:46;;;;;;;10.25;9.25;;;;;;;;;;4954860;28;20141;-67
2023/09/11 14:08:13;;;;;;;9.65;8.73;;;;;;;;;;4961610;28;20058;-66
2023/09/11 14:10:39;;;;;;;10.10;9.10;;;;;;;;;;4963718;28;20253;-66
2023/09/11 14:13:09;;;;;;;10.18;9.10;;;;;;;;;;4965501;28;20086;-67
2023/09/11 14:15:36;;;;;;;11.05;9.90;;;;;;;;;;4951748;28;20051;-66
2023/09/11 14:18:03;;;;;;;12.10;10.90;;;;;;;;;;4961666;28;20484;-68
2023/09/11 14:20:29;;;;;;;11.20;10.10;;;;;;;;;;4958181;28;20053;-67
2023/09/11 14:22:56;;;;;;;10.38;8.60;;;;;;;;;;4957733;28;20473;-67